createdAt,value
2016-03-26T00:00:56.892Z,1010.8
2016-03-26T00:01:56.862Z,1010.82
2016-03-26T00:02:56.850Z,1010.8
2016-03-26T00:03:56.836Z,1010.79
2016-03-26T00:04:56.825Z,1010.8
2016-03-26T00:05:56.795Z,1010.75
2016-03-26T00:06:56.798Z,1010.75
2016-03-26T00:07:56.770Z,1010.79
2016-03-26T00:08:56.756Z,1010.78
2016-03-26T00:09:56.728Z,1010.76
2016-03-26T00:10:56.716Z,1010.81
2016-03-26T00:11:56.702Z,1010.75
2016-03-26T00:12:56.689Z,1010.79
2016-03-26T00:13:56.677Z,1010.82
2016-03-26T00:14:56.647Z,1010.81
2016-03-26T00:15:56.650Z,1010.79
2016-03-26T00:16:56.622Z,1010.78
2016-03-26T00:17:56.609Z,1010.78
2016-03-26T00:18:56.580Z,1010.78
2016-03-26T00:19:56.568Z,1010.8
2016-03-26T00:20:56.554Z,1010.8
2016-03-26T00:21:56.541Z,1010.8
2016-03-26T00:22:56.512Z,1010.78
2016-03-26T00:23:56.500Z,1010.78
2016-03-26T00:24:56.487Z,1010.72
2016-03-26T00:25:56.474Z,1010.76
2016-03-26T00:26:56.443Z,1010.77
2016-03-26T00:27:56.430Z,1010.77
2016-03-26T00:28:56.417Z,1010.75
2016-03-26T00:29:56.404Z,1010.76
2016-03-26T00:30:56.375Z,1010.74
2016-03-26T00:31:56.362Z,1010.78
2016-03-26T00:32:56.350Z,1010.75
2016-03-26T00:33:56.336Z,1010.77
2016-03-26T00:34:56.323Z,1010.78
2016-03-26T00:35:56.311Z,1010.76
2016-03-26T00:36:56.283Z,1010.73
2016-03-26T00:37:56.269Z,1010.72
2016-03-26T00:38:56.257Z,1010.73
2016-03-26T00:39:56.228Z,1010.73
2016-03-26T00:40:56.214Z,1010.74
2016-03-26T00:41:56.190Z,1010.74
2016-03-26T00:42:56.178Z,1010.73
2016-03-26T00:43:56.164Z,1010.75
2016-03-26T00:44:56.136Z,1010.73
2016-03-26T00:45:56.123Z,1010.71
2016-03-26T00:46:56.110Z,1010.72
2016-03-26T00:47:56.097Z,1010.69
2016-03-26T00:48:56.069Z,1010.7
2016-03-26T00:49:56.056Z,1010.71
2016-03-26T00:50:56.042Z,1010.74
2016-03-26T00:51:56.030Z,1010.76
2016-03-26T00:52:56.000Z,1010.79
2016-03-26T00:53:55.989Z,1010.78
2016-03-26T00:54:55.975Z,1010.81
2016-03-26T00:55:55.947Z,1010.78
2016-03-26T00:56:56.027Z,1010.8
2016-03-26T00:57:55.921Z,1010.77
2016-03-26T00:58:55.908Z,1010.8
2016-03-26T00:59:55.880Z,1010.77
2016-03-26T01:00:55.866Z,1010.81
2016-03-26T01:01:55.854Z,1010.79
2016-03-26T01:02:55.841Z,1010.82
2016-03-26T01:03:55.813Z,1010.79
2016-03-26T01:04:55.799Z,1010.79
2016-03-26T01:05:55.785Z,1010.8
2016-03-26T01:06:55.773Z,1010.79
2016-03-26T01:07:55.746Z,1010.75
2016-03-26T01:08:55.732Z,1010.73
2016-03-26T01:09:55.719Z,1010.71
2016-03-26T01:10:55.707Z,1010.68
2016-03-26T01:11:55.677Z,1010.71
2016-03-26T01:12:55.666Z,1010.74
2016-03-26T01:13:55.653Z,1010.75
2016-03-26T01:14:55.624Z,1010.77
2016-03-26T01:15:55.627Z,1010.78
2016-03-26T01:16:55.599Z,1010.77
2016-03-26T01:17:55.585Z,1010.84
2016-03-26T01:18:55.556Z,1010.83
2016-03-26T01:19:55.543Z,1010.86
2016-03-26T01:20:55.531Z,1010.9
2016-03-26T01:21:55.502Z,1010.92
2016-03-26T01:22:55.489Z,1010.97
2016-03-26T01:23:55.476Z,1010.94
2016-03-26T01:24:55.448Z,1010.91
2016-03-26T01:25:55.434Z,1010.92
2016-03-26T01:26:55.562Z,1010.89
2016-03-26T01:27:55.409Z,1010.88
2016-03-26T01:28:55.380Z,1010.9
2016-03-26T01:29:55.367Z,1010.86
2016-03-26T01:30:55.354Z,1010.88
2016-03-26T01:31:55.326Z,1010.89
2016-03-26T01:32:55.314Z,1010.89
2016-03-26T01:33:55.299Z,1010.89
2016-03-26T01:34:55.272Z,1010.92
2016-03-26T01:35:55.258Z,1010.97
2016-03-26T01:36:55.245Z,1010.94
2016-03-26T01:37:55.232Z,1010.9
2016-03-26T01:38:55.204Z,1010.92
2016-03-26T01:39:55.191Z,1010.93
2016-03-26T01:40:55.177Z,1010.94
2016-03-26T01:41:55.150Z,1010.95
2016-03-26T01:42:55.136Z,1010.94
2016-03-26T01:43:55.124Z,1010.97
2016-03-26T01:44:55.111Z,1011.01
2016-03-26T01:45:55.083Z,1011
2016-03-26T01:46:55.069Z,1011.01
2016-03-26T01:47:55.056Z,1011.01
2016-03-26T01:48:55.027Z,1011
2016-03-26T01:49:55.015Z,1011.05
2016-03-26T01:50:55.002Z,1011.05
2016-03-26T01:51:54.973Z,1011.12
2016-03-26T01:52:54.960Z,1011.08
2016-03-26T01:53:54.948Z,1011.08
2016-03-26T01:54:54.918Z,1011.05
2016-03-26T01:55:54.921Z,1011.06
2016-03-26T01:56:54.893Z,1011.07
2016-03-26T01:57:54.880Z,1011.05
2016-03-26T01:58:54.851Z,1011.06
2016-03-26T01:59:54.838Z,1011.03
2016-03-26T02:00:54.825Z,1011.01
2016-03-26T02:01:54.798Z,1011.01
2016-03-26T02:02:54.784Z,1011.03
2016-03-26T02:03:54.772Z,1011
2016-03-26T02:04:54.743Z,1010.97
2016-03-26T02:05:54.730Z,1010.98
2016-03-26T02:06:54.733Z,1010.95
2016-03-26T02:07:54.688Z,1011.02
2016-03-26T02:08:54.675Z,1010.98
2016-03-26T02:09:54.678Z,1010.96
2016-03-26T02:10:54.633Z,1011.01
2016-03-26T02:11:54.621Z,1010.96
2016-03-26T02:12:54.608Z,1010.93
2016-03-26T02:13:54.595Z,1010.93
2016-03-26T02:14:54.566Z,1010.92
2016-03-26T02:15:54.554Z,1010.95
2016-03-26T02:16:54.525Z,1010.9
2016-03-26T02:17:54.513Z,1010.92
2016-03-26T02:18:54.499Z,1010.87
2016-03-26T02:19:54.486Z,1010.86
2016-03-26T02:20:54.457Z,1010.86
2016-03-26T02:21:54.445Z,1010.83
2016-03-26T02:22:54.432Z,1010.84
2016-03-26T02:23:54.403Z,1010.79
2016-03-26T02:24:54.390Z,1010.79
2016-03-26T02:25:54.376Z,1010.8
2016-03-26T02:26:54.348Z,1010.82
2016-03-26T02:27:54.336Z,1010.83
2016-03-26T02:28:54.307Z,1010.81
2016-03-26T02:29:54.295Z,1010.78
2016-03-26T02:30:54.282Z,1010.78
2016-03-26T02:31:54.268Z,1010.75
2016-03-26T02:32:54.240Z,1010.71
2016-03-26T02:33:54.227Z,1010.76
2016-03-26T02:34:54.214Z,1010.73
2016-03-26T02:35:54.185Z,1010.74
2016-03-26T02:36:54.172Z,1010.74
2016-03-26T02:37:54.159Z,1010.76
2016-03-26T02:38:54.146Z,1010.71
2016-03-26T02:39:54.119Z,1010.65
2016-03-26T02:40:54.105Z,1010.65
2016-03-26T02:41:54.077Z,1010.62
2016-03-26T02:42:54.063Z,1010.61
2016-03-26T02:43:54.050Z,1010.59
2016-03-26T02:44:54.022Z,1010.59
2016-03-26T02:45:54.010Z,1010.53
2016-03-26T02:46:53.996Z,1010.51
2016-03-26T02:47:53.968Z,1010.53
2016-03-26T02:48:53.955Z,1010.47
2016-03-26T02:49:53.941Z,1010.43
2016-03-26T02:50:53.913Z,1010.45
2016-03-26T02:51:53.900Z,1010.44
2016-03-26T02:52:53.888Z,1010.43
2016-03-26T02:53:53.859Z,1010.41
2016-03-26T02:54:53.846Z,1010.4
2016-03-26T02:55:53.833Z,1010.39
2016-03-26T02:56:53.804Z,1010.4
2016-03-26T02:57:53.792Z,1010.36
2016-03-26T02:58:53.779Z,1010.4
2016-03-26T02:59:53.750Z,1010.39
2016-03-26T03:00:53.737Z,1010.34
2016-03-26T03:01:53.724Z,1010.42
2016-03-26T03:02:53.696Z,1010.35
2016-03-26T03:03:53.683Z,1010.38
2016-03-26T03:04:53.670Z,1010.38
2016-03-26T03:05:53.642Z,1010.37
2016-03-26T03:06:53.628Z,1010.33
2016-03-26T03:07:53.615Z,1010.31
2016-03-26T03:08:53.587Z,1010.29
2016-03-26T03:09:53.574Z,1010.33
2016-03-26T03:10:53.561Z,1010.33
2016-03-26T03:11:53.532Z,1010.38
2016-03-26T03:12:53.520Z,1010.44
2016-03-26T03:13:53.506Z,1010.45
2016-03-26T03:14:53.493Z,1010.46
2016-03-26T03:15:53.465Z,1010.45
2016-03-26T03:16:53.452Z,1010.46
2016-03-26T03:17:53.424Z,1010.45
2016-03-26T03:18:53.410Z,1010.48
2016-03-26T03:19:53.382Z,1010.44
2016-03-26T03:20:53.369Z,1010.45
2016-03-26T03:21:53.356Z,1010.47
2016-03-26T03:22:53.327Z,1010.46
2016-03-26T03:23:53.315Z,1010.46
2016-03-26T03:24:53.301Z,1010.47
2016-03-26T03:25:53.273Z,1010.46
2016-03-26T03:26:53.260Z,1010.44
2016-03-26T03:27:53.247Z,1010.45
2016-03-26T03:28:53.218Z,1010.41
2016-03-26T03:29:53.206Z,1010.39
2016-03-26T03:30:53.177Z,1010.37
2016-03-26T03:31:53.164Z,1010.3
2016-03-26T03:32:53.151Z,1010.29
2016-03-26T03:33:53.138Z,1010.22
2016-03-26T03:34:53.110Z,1010.21
2016-03-26T03:35:53.098Z,1010.16
2016-03-26T03:36:53.084Z,1010.14
2016-03-26T03:37:53.056Z,1010.15
2016-03-26T03:38:53.043Z,1010.11
2016-03-26T03:39:53.014Z,1010.07
2016-03-26T03:40:53.001Z,1010.08
2016-03-26T03:41:52.973Z,1010.05
2016-03-26T03:42:52.960Z,1010.04
2016-03-26T03:43:52.962Z,1010.06
2016-03-26T03:44:52.934Z,1010.06
2016-03-26T03:45:52.905Z,1010.06
2016-03-26T03:46:52.892Z,1010.1
2016-03-26T03:47:52.863Z,1010.1
2016-03-26T03:48:52.866Z,1010.07
2016-03-26T03:49:52.838Z,1010.09
2016-03-26T03:50:52.810Z,1010.02
2016-03-26T03:51:52.796Z,1010.09
2016-03-26T03:52:52.768Z,1010.06
2016-03-26T03:53:52.755Z,1010.1
2016-03-26T03:54:52.741Z,1010.08
2016-03-26T03:55:52.729Z,1010.11
2016-03-26T03:56:52.701Z,1010.13
2016-03-26T03:57:52.687Z,1010.14
2016-03-26T03:58:52.660Z,1010.1
2016-03-26T03:59:52.646Z,1010.1
2016-03-26T04:00:52.632Z,1010.11
2016-03-26T04:01:52.605Z,1010.06
2016-03-26T04:02:52.592Z,1010.11
2016-03-26T04:03:52.594Z,1010.11
2016-03-26T04:04:52.550Z,1010.09
2016-03-26T04:05:52.537Z,1010.04
2016-03-26T04:06:52.508Z,1010.05
2016-03-26T04:07:52.512Z,1010.06
2016-03-26T04:08:52.467Z,1010.07
2016-03-26T04:09:52.453Z,1010.05
2016-03-26T04:10:52.442Z,1010
2016-03-26T04:11:52.412Z,1010.03
2016-03-26T04:12:52.399Z,1010
2016-03-26T04:13:52.387Z,1010
2016-03-26T04:14:52.358Z,1010
2016-03-26T04:15:52.345Z,1010
2016-03-26T04:16:52.333Z,1010.03
2016-03-26T04:17:52.303Z,1010.03
2016-03-26T04:18:52.291Z,1010.07
2016-03-26T04:19:52.278Z,1010.09
2016-03-26T04:20:52.249Z,1010.11
2016-03-26T04:21:52.236Z,1010.06
2016-03-26T04:22:52.207Z,1010.08
2016-03-26T04:23:52.195Z,1010.06
2016-03-26T04:24:52.182Z,1009.99
2016-03-26T04:25:52.154Z,1009.98
2016-03-26T04:26:52.140Z,1009.96
2016-03-26T04:27:52.112Z,1009.94
2016-03-26T04:28:52.099Z,1009.94
2016-03-26T04:29:52.085Z,1010.01
2016-03-26T04:30:52.057Z,1009.98
2016-03-26T04:31:52.045Z,1010
2016-03-26T04:32:52.016Z,1009.98
2016-03-26T04:33:52.003Z,1010
2016-03-26T04:34:51.990Z,1009.98
2016-03-26T04:35:51.977Z,1009.98
2016-03-26T04:36:51.948Z,1009.93
2016-03-26T04:37:51.936Z,1009.9
2016-03-26T04:38:51.907Z,1009.85
2016-03-26T04:39:51.894Z,1009.77
2016-03-26T04:40:51.866Z,1009.74
2016-03-26T04:41:51.853Z,1009.75
2016-03-26T04:42:51.839Z,1009.78
2016-03-26T04:43:51.811Z,1009.8
2016-03-26T04:44:51.798Z,1009.81
2016-03-26T04:45:51.773Z,1009.82
2016-03-26T04:46:51.761Z,1009.86
2016-03-26T04:47:51.732Z,1009.79
2016-03-26T04:48:51.718Z,1009.82
2016-03-26T04:49:51.707Z,1009.83
2016-03-26T04:50:51.678Z,1009.88
2016-03-26T04:51:51.664Z,1009.86
2016-03-26T04:52:51.652Z,1009.86
2016-03-26T04:53:51.623Z,1009.87
2016-03-26T04:54:51.610Z,1009.86
2016-03-26T04:55:51.597Z,1009.82
2016-03-26T04:56:51.569Z,1009.78
2016-03-26T04:57:51.571Z,1009.77
2016-03-26T04:58:51.528Z,1009.77
2016-03-26T04:59:51.514Z,1009.75
2016-03-26T05:00:51.500Z,1009.79
2016-03-26T05:01:51.473Z,1009.83
2016-03-26T05:02:51.460Z,1009.78
2016-03-26T05:03:51.431Z,1009.77
2016-03-26T05:04:51.419Z,1009.74
2016-03-26T05:05:51.389Z,1009.76
2016-03-26T05:06:51.377Z,1009.79
2016-03-26T05:07:51.364Z,1009.76
2016-03-26T05:08:51.351Z,1009.74
2016-03-26T05:09:51.322Z,1009.69
2016-03-26T05:10:51.310Z,1009.68
2016-03-26T05:11:51.281Z,1009.69
2016-03-26T05:12:51.283Z,1009.68
2016-03-26T05:13:51.240Z,1009.68
2016-03-26T05:14:51.227Z,1009.69
2016-03-26T05:15:51.213Z,1009.74
2016-03-26T05:16:51.184Z,1009.76
2016-03-26T05:17:51.171Z,1009.75
2016-03-26T05:18:51.143Z,1009.74
2016-03-26T05:19:51.131Z,1009.7
2016-03-26T05:20:51.118Z,1009.65
2016-03-26T05:21:51.089Z,1009.65
2016-03-26T05:22:51.076Z,1009.56
2016-03-26T05:23:51.063Z,1009.6
2016-03-26T05:24:51.034Z,1009.57
2016-03-26T05:25:51.022Z,1009.57
2016-03-26T05:26:50.993Z,1009.57
2016-03-26T05:27:50.995Z,1009.61
2016-03-26T05:28:50.968Z,1009.57
2016-03-26T05:29:50.939Z,1009.59
2016-03-26T05:30:50.925Z,1009.52
2016-03-26T05:31:50.898Z,1009.51
2016-03-26T05:32:50.900Z,1009.5
2016-03-26T05:33:50.871Z,1009.46
2016-03-26T05:34:50.842Z,1009.46
2016-03-26T05:35:50.830Z,1009.42
2016-03-26T05:36:50.816Z,1009.43
2016-03-26T05:37:50.789Z,1009.43
2016-03-26T05:38:50.775Z,1009.39
2016-03-26T05:39:50.747Z,1009.38
2016-03-26T05:40:50.734Z,1009.41
2016-03-26T05:41:50.721Z,1009.42
2016-03-26T05:42:50.707Z,1009.42
2016-03-26T05:43:50.680Z,1009.44
2016-03-26T05:44:50.651Z,1009.46
2016-03-26T05:45:50.638Z,1009.53
2016-03-26T05:46:50.625Z,1009.55
2016-03-26T05:47:50.596Z,1009.56
2016-03-26T05:48:50.584Z,1009.56
2016-03-26T05:49:50.571Z,1009.6
2016-03-26T05:50:50.542Z,1009.59
2016-03-26T05:51:50.529Z,1009.59
2016-03-26T05:52:50.502Z,1009.54
2016-03-26T05:53:50.507Z,1009.6
2016-03-26T05:54:50.465Z,1009.61
2016-03-26T05:55:50.452Z,1009.62
2016-03-26T05:56:50.805Z,1009.63
2016-03-26T05:57:50.418Z,1009.58
2016-03-26T05:58:50.389Z,1009.57
2016-03-26T05:59:50.375Z,1009.53
2016-03-26T06:00:50.347Z,1009.54
2016-03-26T06:01:50.334Z,1009.51
2016-03-26T06:02:50.322Z,1009.55
2016-03-26T06:03:50.308Z,1009.53
2016-03-26T06:04:50.280Z,1009.57
2016-03-26T06:05:50.262Z,1009.56
2016-03-26T06:06:50.241Z,1009.52
2016-03-26T06:07:50.206Z,1009.5
2016-03-26T06:08:50.186Z,1009.49
2016-03-26T06:09:50.164Z,1009.5
2016-03-26T06:10:50.146Z,1009.45
2016-03-26T06:11:50.115Z,1009.42
2016-03-26T06:12:50.099Z,1009.44
2016-03-26T06:13:50.083Z,1009.48
2016-03-26T06:14:50.066Z,1009.5
2016-03-26T06:15:50.052Z,1009.52
2016-03-26T06:16:50.037Z,1009.54
2016-03-26T06:17:50.039Z,1009.5
2016-03-26T06:18:50.010Z,1009.49
2016-03-26T06:19:49.996Z,1009.43
2016-03-26T06:20:49.983Z,1009.41
2016-03-26T06:21:49.969Z,1009.42
2016-03-26T06:22:49.955Z,1009.36
2016-03-26T06:23:49.942Z,1009.34
2016-03-26T06:24:49.928Z,1009.34
2016-03-26T06:25:49.900Z,1009.35
2016-03-26T06:26:49.887Z,1009.33
2016-03-26T06:27:49.890Z,1009.3
2016-03-26T06:28:49.878Z,1009.31
2016-03-26T06:29:49.864Z,1009.24
2016-03-26T06:30:49.850Z,1009.27
2016-03-26T06:31:49.839Z,1009.32
2016-03-26T06:32:49.825Z,1009.28
2016-03-26T06:33:49.811Z,1009.3
2016-03-26T06:34:49.799Z,1009.28
2016-03-26T06:35:49.786Z,1009.32
2016-03-26T06:36:49.789Z,1009.3
2016-03-26T06:37:49.760Z,1009.28
2016-03-26T06:38:49.763Z,1009.28
2016-03-26T06:39:49.749Z,1009.25
2016-03-26T06:40:49.737Z,1009.23
2016-03-26T06:41:49.724Z,1009.24
2016-03-26T06:42:49.711Z,1009.23
2016-03-26T06:43:49.698Z,1009.21
2016-03-26T06:44:49.702Z,1009.23
2016-03-26T06:45:49.688Z,1009.18
2016-03-26T06:46:49.675Z,1009.17
2016-03-26T06:47:49.663Z,1009.11
2016-03-26T06:48:49.665Z,1009.08
2016-03-26T06:49:49.651Z,1009.05
2016-03-26T06:50:49.640Z,1009.03
2016-03-26T06:51:49.642Z,1009.02
2016-03-26T06:52:49.629Z,1009
2016-03-26T06:53:49.615Z,1009.02
2016-03-26T06:54:49.618Z,1009.05
2016-03-26T06:55:49.606Z,1009.02
2016-03-26T06:56:49.608Z,1009.06
2016-03-26T06:57:49.595Z,1009.06
2016-03-26T06:58:49.582Z,1009.11
2016-03-26T06:59:49.586Z,1009.14
2016-03-26T07:00:49.588Z,1009.1
2016-03-26T07:01:49.575Z,1009.19
2016-03-26T07:02:49.578Z,1009.13
2016-03-26T07:03:49.564Z,1009.13
2016-03-26T07:04:49.567Z,1009.16
2016-03-26T07:05:49.555Z,1009.14
2016-03-26T07:06:49.541Z,1009.11
2016-03-26T07:07:49.544Z,1009.09
2016-03-26T07:08:49.547Z,1009.11
2016-03-26T07:09:49.534Z,1009.1
2016-03-26T07:10:49.536Z,1009.06
2016-03-26T07:11:49.523Z,1009.11
2016-03-26T07:12:49.527Z,1009.11
2016-03-26T07:13:49.529Z,1009.15
2016-03-26T07:14:49.515Z,1009.15
2016-03-26T07:15:49.519Z,1009.08
2016-03-26T07:16:49.506Z,1009.14
2016-03-26T07:17:49.509Z,1009.12
2016-03-26T07:18:49.512Z,1009.15
2016-03-26T07:19:49.498Z,1009.18
2016-03-26T07:20:49.501Z,1009.21
2016-03-26T07:21:49.504Z,1009.23
2016-03-26T07:22:49.506Z,1009.19
2016-03-26T07:23:49.493Z,1009.17
2016-03-26T07:24:49.496Z,1009.17
2016-03-26T07:25:49.484Z,1009.12
2016-03-26T07:26:49.486Z,1009.17
2016-03-26T07:27:49.488Z,1009.12
2016-03-26T07:28:49.492Z,1009.12
2016-03-26T07:29:49.478Z,1009.12
2016-03-26T07:30:49.480Z,1009.13
2016-03-26T07:31:49.484Z,1009.16
2016-03-26T07:32:49.486Z,1009.16
2016-03-26T07:33:49.473Z,1009.18
2016-03-26T07:34:49.476Z,1009.19
2016-03-26T07:35:49.478Z,1009.18
2016-03-26T07:36:49.466Z,1009.18
2016-03-26T07:37:49.469Z,1009.2
2016-03-26T07:38:49.471Z,1009.25
2016-03-26T07:39:49.458Z,1009.2
2016-03-26T07:40:49.461Z,1009.2
2016-03-26T07:41:49.464Z,1009.17
2016-03-26T07:42:49.451Z,1009.17
2016-03-26T07:43:49.454Z,1009.16
2016-03-26T07:44:49.457Z,1009.16
2016-03-26T07:45:49.459Z,1009.17
2016-03-26T07:46:49.445Z,1009.2
2016-03-26T07:47:49.449Z,1009.17
2016-03-26T07:48:49.451Z,1009.18
2016-03-26T07:49:49.454Z,1009.16
2016-03-26T07:50:49.441Z,1009.13
2016-03-26T07:51:49.443Z,1009.17
2016-03-26T07:52:49.446Z,1009.21
2016-03-26T07:53:49.434Z,1009.21
2016-03-26T07:54:49.436Z,1009.26
2016-03-26T07:55:49.439Z,1009.18
2016-03-26T07:56:49.442Z,1009.21
2016-03-26T07:57:49.429Z,1009.17
2016-03-26T07:58:49.432Z,1009.16
2016-03-26T07:59:49.434Z,1009.13
2016-03-26T08:00:49.421Z,1009.13
2016-03-26T08:01:49.423Z,1009.15
2016-03-26T08:02:49.425Z,1009.16
2016-03-26T08:03:49.429Z,1009.19
2016-03-26T08:04:49.416Z,1009.19
2016-03-26T08:05:49.419Z,1009.19
2016-03-26T08:06:49.422Z,1009.15
2016-03-26T08:07:49.424Z,1009.14
2016-03-26T08:08:49.411Z,1009.14
2016-03-26T08:09:49.430Z,1009.14
2016-03-26T08:10:49.416Z,1009.11
2016-03-26T08:11:49.404Z,1009.13
2016-03-26T08:12:49.407Z,1009.16
2016-03-26T08:13:49.409Z,1009.14
2016-03-26T08:14:49.412Z,1009.13
2016-03-26T08:15:49.399Z,1009.1
2016-03-26T08:16:49.402Z,1009.09
2016-03-26T08:17:49.404Z,1009.09
2016-03-26T08:18:49.406Z,1009.12
2016-03-26T08:19:49.394Z,1009.1
2016-03-26T08:20:49.396Z,1009.07
2016-03-26T08:21:49.399Z,1009.09
2016-03-26T08:22:49.387Z,1009.08
2016-03-26T08:23:49.389Z,1009.07
2016-03-26T08:24:49.392Z,1009.1
2016-03-26T08:25:49.395Z,1009.06
2016-03-26T08:26:49.382Z,1009.03
2016-03-26T08:27:49.384Z,1009.02
2016-03-26T08:28:49.387Z,1009.01
2016-03-26T08:29:49.390Z,1008.97
2016-03-26T08:30:49.376Z,1008.96
2016-03-26T08:31:49.379Z,1008.99
2016-03-26T08:32:49.382Z,1008.99
2016-03-26T08:33:49.384Z,1009
2016-03-26T08:34:49.372Z,1009.02
2016-03-26T08:35:49.374Z,1009.05
2016-03-26T08:36:49.378Z,1009.02
2016-03-26T08:37:49.364Z,1009.01
2016-03-26T08:38:49.366Z,1009
2016-03-26T08:39:49.370Z,1009.02
2016-03-26T08:40:49.360Z,1009.03
2016-03-26T08:41:49.363Z,1009.05
2016-03-26T08:42:49.366Z,1009.01
2016-03-26T08:43:49.368Z,1008.99
2016-03-26T08:44:49.356Z,1009
2016-03-26T08:45:49.358Z,1008.96
2016-03-26T08:46:49.361Z,1008.95
2016-03-26T08:47:49.364Z,1008.96
2016-03-26T08:48:49.350Z,1009.02
2016-03-26T08:49:49.354Z,1009.01
2016-03-26T08:50:49.356Z,1009.01
2016-03-26T08:51:49.359Z,1009
2016-03-26T08:52:49.346Z,1009.01
2016-03-26T08:53:49.349Z,1009.05
2016-03-26T08:54:49.352Z,1009.01
2016-03-26T08:55:49.354Z,1008.95
2016-03-26T08:56:49.358Z,1008.94
2016-03-26T08:57:49.344Z,1008.96
2016-03-26T08:58:49.347Z,1008.98
2016-03-26T08:59:49.350Z,1008.89
2016-03-26T09:00:49.352Z,1008.98
2016-03-26T09:01:49.354Z,1008.95
2016-03-26T09:02:49.341Z,1008.88
2016-03-26T09:03:49.344Z,1008.95
2016-03-26T09:04:49.347Z,1008.98
2016-03-26T09:05:49.349Z,1008.94
2016-03-26T09:06:49.337Z,1008.97
2016-03-26T09:07:49.339Z,1008.99
2016-03-26T09:08:49.343Z,1009
2016-03-26T09:09:49.345Z,1008.95
2016-03-26T09:10:49.348Z,1008.93
2016-03-26T09:11:49.335Z,1008.99
2016-03-26T09:12:49.337Z,1008.91
2016-03-26T09:13:49.340Z,1008.96
2016-03-26T09:14:49.342Z,1008.9
2016-03-26T09:15:49.345Z,1008.91
2016-03-26T09:16:49.332Z,1008.94
2016-03-26T09:17:49.335Z,1008.92
2016-03-26T09:18:49.337Z,1008.92
2016-03-26T09:19:49.340Z,1008.85
2016-03-26T09:20:49.343Z,1008.89
2016-03-26T09:21:49.330Z,1008.82
2016-03-26T09:22:49.333Z,1008.88
2016-03-26T09:23:49.336Z,1008.83
2016-03-26T09:24:49.338Z,1008.83
2016-03-26T09:25:49.341Z,1008.75
2016-03-26T09:26:49.344Z,1008.78
2016-03-26T09:27:49.330Z,1008.75
2016-03-26T09:28:49.333Z,1008.78
2016-03-26T09:29:49.336Z,1008.76
2016-03-26T09:30:49.338Z,1008.78
2016-03-26T09:31:49.326Z,1008.82
2016-03-26T09:32:49.329Z,1008.77
2016-03-26T09:33:49.332Z,1008.63
2016-03-26T09:34:49.334Z,1008.68
2016-03-26T09:35:49.321Z,1008.67
2016-03-26T09:36:49.324Z,1008.61
2016-03-26T09:37:49.326Z,1008.63
2016-03-26T09:38:49.329Z,1008.65
2016-03-26T09:39:49.316Z,1008.57
2016-03-26T09:40:49.318Z,1008.47
2016-03-26T09:41:49.321Z,1008.51
2016-03-26T09:42:49.324Z,1008.48
2016-03-26T09:43:49.326Z,1008.5
2016-03-26T09:44:49.314Z,1008.47
2016-03-26T09:45:49.316Z,1008.53
2016-03-26T09:46:49.319Z,1008.52
2016-03-26T09:47:49.322Z,1008.44
2016-03-26T09:48:49.308Z,1008.47
2016-03-26T09:49:49.311Z,1008.47
2016-03-26T09:50:49.314Z,1008.47
2016-03-26T09:51:49.317Z,1008.38
2016-03-26T09:52:49.303Z,1008.32
2016-03-26T09:53:49.306Z,1008.28
2016-03-26T09:54:49.309Z,1008.27
2016-03-26T09:55:49.312Z,1008.32
2016-03-26T09:56:49.314Z,1008.3
2016-03-26T09:57:49.302Z,1008.31
2016-03-26T09:58:49.305Z,1008.18
2016-03-26T09:59:49.307Z,1008.21
2016-03-26T10:00:49.310Z,1008.15
2016-03-26T10:01:49.313Z,1008.18
2016-03-26T10:02:49.299Z,1008.04
2016-03-26T10:03:49.303Z,1008.12
2016-03-26T10:04:49.305Z,1008.14
2016-03-26T10:05:49.307Z,1008.14
2016-03-26T10:06:49.295Z,1008.13
2016-03-26T10:07:49.298Z,1008.04
2016-03-26T10:08:49.301Z,1008.15
2016-03-26T10:09:49.303Z,1008.08
2016-03-26T10:10:49.306Z,1008.05
2016-03-26T10:11:49.292Z,1008.07
2016-03-26T10:12:49.296Z,1008.09
2016-03-26T10:13:49.314Z,1008.03
2016-03-26T10:14:49.301Z,1008.04
2016-03-26T10:15:49.288Z,1008.05
2016-03-26T10:16:49.291Z,1008.05
2016-03-26T10:17:49.293Z,1008.05
2016-03-26T10:18:49.295Z,1008.08
2016-03-26T10:19:49.298Z,1008.02
2016-03-26T10:20:49.317Z,1007.98
2016-03-26T10:21:49.289Z,1007.92
2016-03-26T10:22:49.291Z,1007.93
2016-03-26T10:23:49.294Z,1007.93
2016-03-26T10:24:49.281Z,1007.89
2016-03-26T10:25:49.283Z,1007.93
2016-03-26T10:26:49.286Z,1008.04
2016-03-26T10:27:49.289Z,1007.9
2016-03-26T10:28:49.292Z,1007.91
2016-03-26T10:29:49.278Z,1007.87
2016-03-26T10:30:49.281Z,1007.84
2016-03-26T10:31:49.283Z,1007.85
2016-03-26T10:32:49.286Z,1007.79
2016-03-26T10:33:49.274Z,1007.84
2016-03-26T10:34:49.292Z,1007.88
2016-03-26T10:35:49.279Z,1007.89
2016-03-26T10:36:49.282Z,1007.83
2016-03-26T10:37:49.285Z,1007.81
2016-03-26T10:38:49.271Z,1007.79
2016-03-26T10:39:49.274Z,1007.79
2016-03-26T10:40:49.277Z,1007.76
2016-03-26T10:41:49.280Z,1007.8
2016-03-26T10:42:49.271Z,1007.86
2016-03-26T10:43:49.274Z,1007.87
2016-03-26T10:44:49.261Z,1007.82
2016-03-26T10:45:49.264Z,1007.78
2016-03-26T10:46:49.267Z,1007.76
2016-03-26T10:47:49.270Z,1007.81
2016-03-26T10:48:49.256Z,1007.85
2016-03-26T10:49:49.259Z,1007.85
2016-03-26T10:50:49.261Z,1007.71
2016-03-26T10:51:49.265Z,1007.69
2016-03-26T10:52:49.283Z,1007.67
2016-03-26T10:53:49.255Z,1007.73
2016-03-26T10:54:49.257Z,1007.67
2016-03-26T10:55:49.260Z,1007.66
2016-03-26T10:56:49.263Z,1007.66
2016-03-26T10:57:49.266Z,1007.67
2016-03-26T10:58:49.268Z,1007.68
2016-03-26T10:59:49.255Z,1007.74
2016-03-26T11:00:49.257Z,1007.74
2016-03-26T11:01:49.244Z,1007.67
2016-03-26T11:02:49.247Z,1007.71
2016-03-26T11:03:49.249Z,1007.73
2016-03-26T11:04:49.252Z,1007.75
2016-03-26T11:05:49.255Z,1007.7
2016-03-26T11:06:49.243Z,1007.74
2016-03-26T11:07:49.245Z,1007.72
2016-03-26T11:08:49.248Z,1007.73
2016-03-26T11:09:49.251Z,1007.68
2016-03-26T11:10:49.238Z,1007.67
2016-03-26T11:11:49.240Z,1007.61
2016-03-26T11:12:49.243Z,1007.7
2016-03-26T11:13:49.245Z,1007.74
2016-03-26T11:14:49.248Z,1007.62
2016-03-26T11:15:49.235Z,1007.64
2016-03-26T11:16:49.238Z,1007.58
2016-03-26T11:17:49.240Z,1007.56
2016-03-26T11:18:49.243Z,1007.58
2016-03-26T11:19:49.246Z,1007.61
2016-03-26T11:20:49.233Z,1007.6
2016-03-26T11:21:49.236Z,1007.55
2016-03-26T11:22:49.239Z,1007.54
2016-03-26T11:23:49.241Z,1007.5
2016-03-26T11:24:49.244Z,1007.49
2016-03-26T11:25:49.231Z,1007.47
2016-03-26T11:26:49.233Z,1007.45
2016-03-26T11:27:49.236Z,1007.46
2016-03-26T11:28:49.239Z,1007.45
2016-03-26T11:29:49.227Z,1007.39
2016-03-26T11:30:49.229Z,1007.34
2016-03-26T11:31:49.232Z,1007.33
2016-03-26T11:32:49.234Z,1007.31
2016-03-26T11:33:49.221Z,1007.31
2016-03-26T11:34:49.224Z,1007.35
2016-03-26T11:35:49.227Z,1007.35
2016-03-26T11:36:49.229Z,1007.38
2016-03-26T11:37:49.232Z,1007.33
2016-03-26T11:38:49.234Z,1007.31
2016-03-26T11:39:49.222Z,1007.26
2016-03-26T11:40:49.224Z,1007.31
2016-03-26T11:41:49.227Z,1007.3
2016-03-26T11:42:49.229Z,1007.29
2016-03-26T11:43:49.232Z,1007.21
2016-03-26T11:44:49.234Z,1007.33
2016-03-26T11:45:49.223Z,1007.29
2016-03-26T11:46:49.225Z,1007.28
2016-03-26T11:47:49.228Z,1007.26
2016-03-26T11:48:49.230Z,1007.23
2016-03-26T11:49:49.234Z,1007.25
2016-03-26T11:50:49.220Z,1007.21
2016-03-26T11:51:49.223Z,1007.16
2016-03-26T11:52:49.225Z,1007.11
2016-03-26T11:53:49.228Z,1007.18
2016-03-26T11:54:49.230Z,1007.14
2016-03-26T11:55:49.218Z,1007.22
2016-03-26T11:56:49.220Z,1007.16
2016-03-26T11:57:49.223Z,1007.18
2016-03-26T11:58:49.225Z,1007.12
2016-03-26T11:59:49.229Z,1007.14
2016-03-26T12:00:49.231Z,1007.2
2016-03-26T12:01:49.219Z,1007.1
2016-03-26T12:02:49.221Z,1007.15
2016-03-26T12:03:49.224Z,1007.08
2016-03-26T12:04:49.226Z,1007.11
2016-03-26T12:05:49.229Z,1007.07
2016-03-26T12:06:49.216Z,1007.08
2016-03-26T12:07:49.219Z,1007.04
2016-03-26T12:08:49.221Z,1007.09
2016-03-26T12:09:49.224Z,1007.02